createdAt,value
2022-11-29T00:01:21.606Z,7.78
2022-11-29T00:05:23.029Z,5.45
2022-11-29T00:09:24.451Z,7.30
2022-11-29T00:13:25.873Z,6.90
2022-11-29T00:17:27.269Z,6.50
2022-11-29T00:21:28.923Z,6.45
2022-11-29T00:25:30.400Z,6.88
2022-11-29T00:29:31.969Z,6.65
2022-11-29T00:33:33.489Z,5.75
2022-11-29T00:37:35.136Z,8.80
2022-11-29T00:41:36.548Z,6.90
2022-11-29T00:45:38.039Z,6.82
2022-11-29T00:49:39.526Z,7.60
2022-11-29T00:53:40.970Z,8.13
2022-11-29T00:57:42.441Z,7.05
2022-11-29T01:01:44.278Z,8.23
2022-11-29T01:05:46.102Z,7.18
2022-11-29T01:09:47.555Z,6.97
2022-11-29T01:13:50.426Z,7.35
2022-11-29T01:17:51.971Z,6.15
2022-11-29T01:21:53.402Z,9.05
2022-11-29T01:26:07.137Z,7.07
2022-11-29T01:30:10.263Z,7.57
2022-11-29T01:34:11.720Z,8.00
2022-11-29T01:38:13.247Z,7.55
2022-11-29T01:42:14.792Z,8.07
2022-11-29T01:46:16.232Z,6.10
2022-11-29T01:50:17.908Z,6.47
2022-11-29T01:54:20.196Z,7.35
2022-11-29T01:58:22.395Z,7.28
2022-11-29T02:02:31.129Z,7.45
2022-11-29T02:06:33.379Z,7.10
2022-11-29T02:11:19.295Z,7.78
2022-11-29T02:15:46.249Z,7.55
2022-11-29T02:20:06.526Z,8.52
2022-11-29T02:28:58.322Z,7.97
2022-11-29T02:33:27.263Z,8.57
2022-11-29T02:38:00.191Z,7.55
2022-11-29T02:42:56.204Z,7.15
2022-11-29T02:47:20.367Z,9.13
2022-11-29T02:51:49.495Z,6.97
2022-11-29T02:56:10.222Z,8.27
2022-11-29T03:00:22.918Z,8.98
2022-11-29T03:04:43.849Z,9.88
2022-11-29T03:09:08.606Z,8.85
2022-11-29T03:13:50.448Z,8.63
2022-11-29T03:18:19.631Z,9.43
2022-11-29T03:22:47.432Z,8.18
2022-11-29T03:26:56.115Z,7.88
2022-11-29T03:31:24.063Z,10.15
2022-11-29T03:35:36.309Z,8.55
2022-11-29T03:40:07.413Z,7.85
2022-11-29T03:44:19.847Z,9.77
2022-11-29T03:48:27.082Z,9.93
2022-11-29T03:52:38.447Z,7.72
2022-11-29T03:56:40.919Z,8.15
2022-11-29T04:01:10.762Z,9.77
2022-11-29T04:05:29.979Z,9.00
2022-11-29T04:10:03.825Z,8.60
2022-11-29T04:14:23.702Z,7.70
2022-11-29T04:18:46.737Z,8.65
2022-11-29T04:23:25.703Z,8.75
2022-11-29T04:27:32.940Z,7.18
2022-11-29T04:31:56.738Z,8.25
2022-11-29T04:36:17.760Z,8.10
2022-11-29T04:40:49.592Z,7.65
2022-11-29T04:45:36.350Z,7.53
2022-11-29T04:50:11.359Z,6.75
2022-11-29T04:54:34.992Z,7.82
2022-11-29T04:58:58.888Z,8.60
2022-11-29T05:03:11.502Z,7.60
2022-11-29T05:07:18.637Z,8.45
2022-11-29T05:11:38.187Z,9.20
2022-11-29T05:16:03.767Z,7.43
2022-11-29T05:20:33.674Z,9.23
2022-11-29T05:24:51.320Z,8.85
2022-11-29T05:29:07.831Z,8.68
2022-11-29T05:33:35.029Z,7.53
2022-11-29T05:37:54.958Z,9.80
2022-11-29T05:42:24.329Z,8.82
2022-11-29T05:46:59.446Z,9.00
2022-11-29T05:51:21.539Z,10.25
2022-11-29T05:55:46.806Z,11.40
2022-11-29T05:59:51.091Z,10.50
2022-11-29T06:04:19.956Z,11.63
2022-11-29T06:08:34.043Z,8.88
2022-11-29T06:12:35.961Z,9.63
2022-11-29T06:17:01.810Z,9.68
2022-11-29T06:21:33.281Z,9.55
2022-11-29T06:26:34.077Z,10.07
2022-11-29T06:31:14.338Z,9.85
2022-11-29T06:35:15.763Z,8.73
2022-11-29T06:39:17.524Z,10.82
2022-11-29T06:43:19.303Z,12.27
2022-11-29T06:47:39.840Z,11.48
2022-11-29T06:51:58.909Z,9.77
2022-11-29T06:56:26.503Z,11.38
2022-11-29T07:00:50.428Z,11.43
2022-11-29T07:05:02.805Z,11.43
2022-11-29T07:09:31.299Z,11.57
2022-11-29T07:13:32.973Z,10.45
2022-11-29T07:17:42.531Z,10.95
2022-11-29T07:22:06.885Z,10.73
2022-11-29T07:26:18.947Z,14.38
2022-11-29T07:30:23.995Z,11.50
2022-11-29T07:35:08.380Z,11.70
2022-11-29T07:39:43.710Z,10.75
2022-11-29T07:44:03.841Z,10.48
2022-11-29T07:48:06.884Z,9.73
2022-11-29T07:52:12.432Z,11.15
2022-11-29T07:56:16.177Z,9.93
2022-11-29T08:00:19.583Z,9.02
2022-11-29T08:04:21.008Z,8.98
2022-11-29T08:08:22.410Z,11.02
2022-11-29T08:12:23.821Z,11.48
2022-11-29T08:16:25.321Z,9.57
2022-11-29T08:20:26.774Z,8.85
2022-11-29T08:24:28.443Z,9.80
2022-11-29T08:28:29.933Z,9.23
2022-11-29T08:32:31.533Z,8.90
2022-11-29T08:36:33.494Z,11.05
2022-11-29T08:40:34.962Z,9.32
2022-11-29T08:44:36.415Z,9.68
2022-11-29T08:48:37.958Z,7.55
2022-11-29T08:53:00.626Z,10.98
2022-11-29T08:57:37.825Z,8.50
2022-11-29T09:01:23.664Z,9.05
2022-11-29T09:05:25.156Z,9.75
2022-11-29T09:09:26.542Z,8.55
2022-11-29T09:13:28.072Z,11.23
2022-11-29T09:17:29.540Z,9.02
2022-11-29T09:21:33.301Z,10.23
2022-11-29T09:25:34.749Z,11.77
2022-11-29T09:29:36.368Z,11.13
2022-11-29T09:33:39.756Z,11.35
2022-11-29T09:37:44.494Z,10.20
2022-11-29T09:41:53.251Z,11.30
2022-11-29T09:46:23.317Z,12.32
2022-11-29T09:51:24.104Z,11.88
2022-11-29T09:55:37.515Z,8.73
2022-11-29T09:59:43.295Z,8.95
2022-11-29T10:03:48.577Z,9.10
2022-11-29T10:08:06.508Z,10.13
2022-11-29T10:12:23.335Z,10.80
2022-11-29T10:16:41.865Z,11.65
2022-11-29T10:20:49.210Z,11.85
2022-11-29T10:24:57.308Z,12.32
2022-11-29T10:28:58.771Z,9.82
2022-11-29T10:33:00.814Z,11.07
2022-11-29T10:37:02.702Z,10.70
2022-11-29T10:41:08.764Z,11.23
2022-11-29T10:45:37.531Z,10.77
2022-11-29T10:49:40.178Z,11.82
2022-11-29T10:53:41.840Z,11.57
2022-11-29T10:58:11.924Z,10.73
2022-11-29T11:02:19.164Z,11.10
2022-11-29T11:06:24.242Z,11.43
2022-11-29T11:10:30.705Z,12.02
2022-11-29T11:14:37.891Z,10.45
2022-11-29T11:18:39.426Z,9.77
2022-11-29T11:22:41.147Z,11.90
2022-11-29T11:26:44.655Z,12.15
2022-11-29T11:31:02.264Z,10.52
2022-11-29T11:35:22.134Z,9.75
2022-11-29T11:39:24.186Z,8.27
2022-11-29T11:43:25.711Z,9.45
2022-11-29T11:47:32.886Z,7.72
2022-11-29T11:51:34.333Z,8.40
2022-11-29T11:55:39.367Z,7.75
2022-11-29T11:59:47.266Z,9.43
2022-11-29T12:04:24.232Z,9.80
2022-11-29T12:08:28.577Z,6.78
2022-11-29T12:12:37.038Z,11.30
2022-11-29T12:16:40.377Z,10.07
2022-11-29T12:21:09.339Z,9.52
2022-11-29T12:25:17.797Z,9.82
2022-11-29T12:29:22.340Z,8.43
2022-11-29T12:33:45.118Z,9.32
2022-11-29T12:38:18.502Z,9.88
2022-11-29T12:42:41.742Z,8.70
2022-11-29T12:46:54.321Z,8.68
2022-11-29T12:51:32.887Z,9.18
2022-11-29T12:55:54.645Z,10.13
2022-11-29T13:00:16.878Z,10.55
2022-11-29T13:04:33.588Z,9.48
2022-11-29T13:08:48.175Z,8.70
2022-11-29T13:12:53.862Z,8.93
2022-11-29T13:17:01.450Z,9.77
2022-11-29T13:21:15.469Z,9.63
2022-11-29T13:25:22.953Z,8.93
2022-11-29T13:29:25.984Z,9.00
2022-11-29T13:33:34.269Z,9.68
2022-11-29T13:38:00.216Z,9.00
2022-11-29T13:42:07.618Z,10.93
2022-11-29T13:46:21.135Z,10.13
2022-11-29T13:50:44.831Z,10.45
2022-11-29T13:54:46.531Z,9.35
2022-11-29T13:58:53.289Z,10.43
2022-11-29T14:02:57.320Z,9.48
2022-11-29T14:07:08.698Z,10.60
2022-11-29T14:11:12.841Z,9.18
2022-11-29T14:15:28.282Z,9.65
2022-11-29T14:19:34.092Z,9.85
2022-11-29T14:23:41.676Z,7.85
2022-11-29T14:27:53.483Z,7.88
2022-11-29T14:31:55.466Z,8.50
2022-11-29T14:36:07.938Z,7.38
2022-11-29T14:40:27.260Z,8.57
2022-11-29T14:44:31.949Z,8.00
2022-11-29T14:48:34.124Z,6.82
2022-11-29T14:52:40.341Z,9.15
2022-11-29T14:56:44.512Z,8.15
2022-11-29T15:00:48.614Z,7.68
2022-11-29T15:04:53.084Z,10.35
2022-11-29T15:09:02.202Z,7.63
2022-11-29T15:13:04.485Z,8.32
2022-11-29T15:17:18.341Z,7.22
2022-11-29T15:21:19.727Z,6.65
2022-11-29T15:25:28.264Z,8.05
2022-11-29T15:29:31.327Z,8.57
2022-11-29T15:33:35.904Z,7.10
2022-11-29T15:37:37.841Z,7.85
2022-11-29T15:41:40.937Z,8.98
2022-11-29T15:45:51.095Z,8.23
2022-11-29T15:49:54.090Z,8.45
2022-11-29T15:54:25.295Z,8.73
2022-11-29T15:58:30.682Z,9.35
2022-11-29T16:02:35.231Z,6.60
2022-11-29T16:06:42.416Z,7.07
2022-11-29T16:10:49.229Z,7.15
2022-11-29T16:14:56.639Z,7.25
2022-11-29T16:19:09.752Z,6.28
2022-11-29T16:23:13.954Z,7.53
2022-11-29T16:27:15.470Z,7.00
2022-11-29T16:31:30.979Z,9.15
2022-11-29T16:35:36.470Z,10.65
2022-11-29T16:39:38.789Z,8.82
2022-11-29T16:43:53.582Z,8.07
2022-11-29T16:47:57.956Z,6.22
2022-11-29T16:51:59.538Z,7.95
2022-11-29T16:56:01.109Z,8.35
2022-11-29T17:00:21.105Z,7.18
2022-11-29T17:04:23.883Z,7.75
2022-11-29T17:08:26.201Z,8.02
2022-11-29T17:12:27.642Z,7.70
2022-11-29T17:16:29.180Z,10.30
2022-11-29T17:20:30.703Z,8.02
2022-11-29T17:24:32.139Z,10.18
2022-11-29T17:28:33.598Z,9.43
2022-11-29T17:32:35.670Z,8.57
2022-11-29T17:36:37.737Z,9.25
2022-11-29T17:40:39.651Z,8.95
2022-11-29T17:44:41.250Z,8.75
2022-11-29T17:48:45.403Z,9.18
2022-11-29T17:52:46.846Z,8.15
2022-11-29T17:56:48.522Z,10.48
2022-11-29T18:00:49.955Z,10.38
2022-11-29T18:04:51.495Z,8.60
2022-11-29T18:08:55.719Z,9.55
2022-11-29T18:12:57.153Z,9.32
2022-11-29T18:16:58.637Z,9.52
2022-11-29T18:21:01.643Z,10.15
2022-11-29T18:25:30.589Z,10.13
2022-11-29T18:29:24.675Z,9.25
2022-11-29T18:33:27.063Z,6.68
2022-11-29T18:38:05.053Z,9.82
2022-11-29T18:41:50.805Z,9.52
2022-11-29T18:45:52.277Z,11.68
2022-11-29T18:49:53.850Z,7.82
2022-11-29T18:53:55.530Z,10.60
2022-11-29T18:57:56.936Z,9.43
2022-11-29T19:01:58.502Z,9.30
2022-11-29T19:05:59.905Z,8.63
2022-11-29T19:10:01.513Z,9.95
2022-11-29T19:14:06.402Z,8.70
2022-11-29T19:18:07.830Z,6.28
2022-11-29T19:22:09.276Z,8.02
2022-11-29T19:26:13.199Z,8.90
2022-11-29T19:30:16.119Z,9.93
2022-11-29T19:34:17.588Z,9.13
2022-11-29T19:38:19.030Z,9.60
2022-11-29T19:42:22.064Z,9.90
2022-11-29T19:46:25.904Z,9.07
2022-11-29T19:50:27.366Z,8.85
2022-11-29T19:54:28.883Z,9.43
2022-11-29T19:58:30.291Z,9.30
2022-11-29T20:02:32.103Z,7.70
2022-11-29T20:06:33.859Z,7.45
2022-11-29T20:10:35.442Z,7.53
2022-11-29T20:14:36.893Z,7.68
2022-11-29T20:18:43.553Z,10.10
2022-11-29T20:22:48.760Z,7.93
2022-11-29T20:26:50.356Z,7.07
2022-11-29T20:30:52.249Z,7.40
2022-11-29T20:34:54.139Z,8.25
2022-11-29T20:39:39.390Z,7.93
2022-11-29T20:43:50.423Z,7.65
2022-11-29T20:48:13.033Z,8.05
2022-11-29T20:52:46.989Z,8.25
2022-11-29T20:56:48.451Z,6.90
2022-11-29T21:00:49.899Z,7.05
2022-11-29T21:04:51.387Z,7.78
2022-11-29T21:08:53.916Z,8.13
2022-11-29T21:12:56.043Z,6.63
2022-11-29T21:16:57.760Z,8.00
2022-11-29T21:20:59.170Z,5.78
2022-11-29T21:25:13.968Z,8.18
2022-11-29T21:29:17.694Z,7.53
2022-11-29T21:33:19.286Z,7.15
2022-11-29T21:37:24.937Z,7.43
2022-11-29T21:41:26.358Z,8.57
2022-11-29T21:45:27.902Z,7.70
2022-11-29T21:49:29.328Z,8.35
2022-11-29T21:53:30.873Z,9.60
2022-11-29T21:57:32.441Z,9.48
2022-11-29T22:01:34.030Z,8.55
2022-11-29T22:05:35.506Z,9.43
2022-11-29T22:09:37.012Z,9.02
2022-11-29T22:13:59.452Z,13.10
2022-11-29T22:18:00.933Z,9.15
2022-11-29T22:22:05.700Z,8.18
2022-11-29T22:26:07.705Z,9.93
2022-11-29T22:30:09.458Z,9.82
2022-11-29T22:34:11.644Z,9.40
2022-11-29T22:38:13.196Z,9.30
2022-11-29T22:42:14.747Z,9.80
2022-11-29T22:46:27.583Z,11.00
2022-11-29T22:50:29.076Z,9.32
2022-11-29T22:54:30.489Z,10.55
2022-11-29T22:58:32.200Z,8.48
2022-11-29T23:02:33.717Z,12.82
2022-11-29T23:06:42.738Z,10.30
2022-11-29T23:10:44.251Z,8.63
2022-11-29T23:14:45.990Z,10.85
2022-11-29T23:18:48.994Z,9.98
2022-11-29T23:22:50.387Z,10.27
2022-11-29T23:26:51.937Z,8.95
2022-11-29T23:30:54.320Z,10.70
2022-11-29T23:34:55.846Z,9.95
2022-11-29T23:38:57.367Z,9.30
2022-11-29T23:42:58.860Z,9.65
2022-11-29T23:47:00.317Z,11.40
2022-11-29T23:51:02.022Z,10.07
2022-11-29T23:55:04.210Z,10.70
2022-11-29T23:59:05.695Z,11.10
